createdAt,value
2019-01-26T00:00:14.240Z,0.00
2019-01-26T00:01:14.206Z,0.00
2019-01-26T00:02:14.120Z,0.00
2019-01-26T00:03:14.092Z,0.00
2019-01-26T00:04:14.066Z,0.00
2019-01-26T00:05:14.053Z,0.00
2019-01-26T00:06:13.968Z,0.00
2019-01-26T00:07:13.982Z,0.00
2019-01-26T00:08:13.895Z,0.00
2019-01-26T00:09:13.859Z,0.00
2019-01-26T00:10:16.497Z,0.00
2019-01-26T00:11:13.844Z,0.00
2019-01-26T00:12:13.809Z,0.00
2019-01-26T00:13:13.707Z,0.00
2019-01-26T00:14:13.669Z,0.00
2019-01-26T00:15:13.631Z,0.00
2019-01-26T00:16:13.596Z,0.00
2019-01-26T00:17:13.596Z,0.00
2019-01-26T00:18:13.561Z,0.00
2019-01-26T00:19:13.484Z,0.00
2019-01-26T00:20:14.047Z,0.00
2019-01-26T00:21:13.436Z,0.00
2019-01-26T00:22:13.371Z,0.00
2019-01-26T00:23:13.378Z,0.00
2019-01-26T00:24:13.336Z,0.00
2019-01-26T00:25:13.299Z,0.00
2019-01-26T00:26:13.219Z,0.00
2019-01-26T00:27:13.180Z,0.00
2019-01-26T00:28:13.207Z,0.00
2019-01-26T00:29:13.102Z,0.00
2019-01-26T00:30:13.117Z,0.00
2019-01-26T00:31:13.028Z,0.00
2019-01-26T00:32:13.011Z,0.00
2019-01-26T00:33:12.954Z,0.00
2019-01-26T00:34:12.960Z,0.00
2019-01-26T00:35:12.887Z,0.00
2019-01-26T00:36:13.596Z,0.00
2019-01-26T00:37:12.807Z,0.00
2019-01-26T00:38:12.813Z,0.00
2019-01-26T00:39:13.549Z,0.00
2019-01-26T00:40:12.691Z,0.00
2019-01-26T00:41:12.662Z,0.00
2019-01-26T00:42:12.616Z,0.00
2019-01-26T00:43:12.640Z,0.00
2019-01-26T00:44:12.544Z,0.00
2019-01-26T00:45:12.499Z,0.00
2019-01-26T00:46:13.131Z,0.00
2019-01-26T00:47:12.429Z,0.00
2019-01-26T00:48:12.428Z,0.00
2019-01-26T00:49:12.354Z,0.00
2019-01-26T00:50:12.362Z,0.00
2019-01-26T00:51:12.291Z,0.00
2019-01-26T00:52:12.243Z,0.00
2019-01-26T00:53:12.202Z,0.00
2019-01-26T00:54:12.168Z,0.00
2019-01-26T00:55:12.184Z,0.00
2019-01-26T00:56:12.089Z,0.00
2019-01-26T00:57:12.066Z,0.00
2019-01-26T00:58:12.031Z,0.00
2019-01-26T00:59:11.986Z,0.00
2019-01-26T01:00:12.040Z,0.00
2019-01-26T01:01:11.908Z,0.00
2019-01-26T01:02:11.871Z,0.00
2019-01-26T01:03:11.829Z,0.00
2019-01-26T01:04:11.809Z,0.00
2019-01-26T01:05:11.848Z,0.00
2019-01-26T01:06:11.731Z,0.00
2019-01-26T01:07:11.807Z,0.00
2019-01-26T01:08:11.696Z,0.00
2019-01-26T01:09:11.644Z,0.00
2019-01-26T01:10:11.703Z,0.00
2019-01-26T01:11:11.567Z,0.00
2019-01-26T01:12:11.495Z,0.00
2019-01-26T01:13:11.469Z,0.00
2019-01-26T01:14:11.421Z,0.00
2019-01-26T01:15:12.504Z,0.00
2019-01-26T01:16:11.386Z,0.00
2019-01-26T01:17:12.105Z,0.00
2019-01-26T01:18:11.286Z,0.00
2019-01-26T01:19:11.294Z,0.00
2019-01-26T01:20:11.206Z,0.00
2019-01-26T01:21:11.158Z,0.00
2019-01-26T01:22:11.167Z,0.00
2019-01-26T01:23:11.086Z,0.00
2019-01-26T01:24:11.045Z,0.00
2019-01-26T01:25:11.073Z,0.00
2019-01-26T01:26:10.977Z,0.00
2019-01-26T01:27:10.990Z,0.00
2019-01-26T01:28:10.897Z,0.00
2019-01-26T01:29:10.858Z,0.00
2019-01-26T01:30:10.819Z,0.00
2019-01-26T01:31:10.783Z,0.00
2019-01-26T01:32:10.791Z,0.00
2019-01-26T01:33:10.705Z,0.00
2019-01-26T01:34:11.179Z,0.00
2019-01-26T01:35:10.636Z,0.00
2019-01-26T01:36:10.601Z,0.00
2019-01-26T01:37:10.651Z,0.00
2019-01-26T01:38:10.525Z,0.00
2019-01-26T01:39:10.483Z,0.00
2019-01-26T01:40:10.490Z,0.00
2019-01-26T01:41:10.417Z,0.00
2019-01-26T01:42:10.443Z,0.00
2019-01-26T01:43:10.341Z,0.00
2019-01-26T01:44:10.305Z,0.00
2019-01-26T01:45:10.265Z,0.00
2019-01-26T01:46:10.228Z,0.00
2019-01-26T01:47:10.236Z,0.00
2019-01-26T01:48:10.204Z,0.00
2019-01-26T01:49:10.121Z,0.00
2019-01-26T01:50:10.082Z,0.00
2019-01-26T01:51:13.001Z,0.00
2019-01-26T01:52:10.008Z,0.00
2019-01-26T01:53:10.015Z,0.00
2019-01-26T01:54:09.929Z,0.00
2019-01-26T01:55:09.895Z,0.00
2019-01-26T01:56:09.861Z,0.00
2019-01-26T01:57:09.866Z,0.00
2019-01-26T01:58:09.780Z,0.00
2019-01-26T01:59:09.741Z,0.00
2019-01-26T02:00:09.711Z,0.00
2019-01-26T02:01:09.715Z,0.00
2019-01-26T02:02:09.632Z,0.00
2019-01-26T02:03:09.675Z,0.00
2019-01-26T02:04:09.557Z,0.00
2019-01-26T02:05:09.524Z,0.00
2019-01-26T02:06:09.528Z,0.00
2019-01-26T02:07:09.454Z,0.00
2019-01-26T02:08:09.407Z,0.00
2019-01-26T02:09:09.375Z,0.00
2019-01-26T02:10:09.380Z,0.00
2019-01-26T02:11:09.340Z,0.00
2019-01-26T02:12:09.260Z,0.00
2019-01-26T02:13:09.224Z,0.00
2019-01-26T02:14:09.309Z,0.00
2019-01-26T02:15:09.167Z,0.00
2019-01-26T02:16:09.152Z,0.00
2019-01-26T02:17:09.075Z,0.00
2019-01-26T02:18:09.040Z,0.00
2019-01-26T02:19:08.997Z,0.00
2019-01-26T02:20:08.960Z,0.00
2019-01-26T02:21:08.966Z,0.00
2019-01-26T02:22:08.967Z,0.00
2019-01-26T02:23:08.846Z,0.00
2019-01-26T02:24:08.910Z,0.00
2019-01-26T02:25:08.773Z,0.00
2019-01-26T02:26:08.737Z,0.00
2019-01-26T02:27:08.746Z,0.00
2019-01-26T02:28:08.663Z,0.00
2019-01-26T02:29:08.627Z,0.00
2019-01-26T02:30:08.635Z,0.00
2019-01-26T02:31:08.554Z,0.00
2019-01-26T02:32:08.514Z,0.00
2019-01-26T02:33:08.489Z,0.00
2019-01-26T02:34:08.439Z,0.00
2019-01-26T02:35:08.462Z,0.00
2019-01-26T02:36:08.363Z,0.00
2019-01-26T02:37:08.331Z,0.00
2019-01-26T02:38:08.301Z,0.00
2019-01-26T02:39:08.256Z,0.00
2019-01-26T02:40:08.260Z,0.00
2019-01-26T02:41:08.180Z,0.00
2019-01-26T02:42:08.144Z,0.00
2019-01-26T02:43:08.149Z,0.00
2019-01-26T02:44:08.066Z,0.00
2019-01-26T02:45:08.066Z,0.00
2019-01-26T02:46:07.992Z,0.00
2019-01-26T02:47:07.962Z,0.00
2019-01-26T02:48:07.976Z,0.00
2019-01-26T02:49:07.882Z,0.00
2019-01-26T02:50:07.845Z,0.00
2019-01-26T02:51:07.805Z,0.00
2019-01-26T02:52:07.773Z,0.00
2019-01-26T02:53:07.802Z,0.00
2019-01-26T02:54:07.700Z,0.00
2019-01-26T02:55:07.661Z,0.00
2019-01-26T02:56:07.621Z,0.00
2019-01-26T02:57:07.585Z,0.00
2019-01-26T02:58:07.594Z,0.00
2019-01-26T02:59:07.507Z,0.00
2019-01-26T03:00:07.518Z,0.00
2019-01-26T03:01:07.444Z,0.00
2019-01-26T03:02:07.415Z,0.00
2019-01-26T03:03:07.360Z,0.00
2019-01-26T03:04:07.374Z,0.00
2019-01-26T03:05:07.352Z,0.00
2019-01-26T03:06:07.293Z,0.00
2019-01-26T03:07:07.235Z,0.00
2019-01-26T03:08:07.188Z,0.00
2019-01-26T03:09:07.145Z,0.00
2019-01-26T03:10:07.157Z,0.00
2019-01-26T03:11:08.606Z,0.00
2019-01-26T03:12:07.029Z,0.00
2019-01-26T03:13:06.997Z,0.00
2019-01-26T03:14:07.011Z,0.00
2019-01-26T03:15:06.969Z,0.00
2019-01-26T03:16:06.886Z,0.00
2019-01-26T03:17:06.896Z,0.00
2019-01-26T03:18:06.809Z,0.00
2019-01-26T03:19:06.776Z,0.00
2019-01-26T03:20:06.737Z,0.00
2019-01-26T03:21:07.507Z,0.00
2019-01-26T03:22:06.708Z,0.00
2019-01-26T03:23:06.625Z,0.00
2019-01-26T03:24:06.589Z,0.00
2019-01-26T03:25:06.548Z,0.00
2019-01-26T03:26:06.517Z,0.00
2019-01-26T03:27:06.513Z,0.00
2019-01-26T03:28:06.444Z,0.00
2019-01-26T03:29:06.454Z,0.00
2019-01-26T03:30:06.372Z,0.00
2019-01-26T03:31:06.372Z,0.00
2019-01-26T03:32:06.298Z,0.00
2019-01-26T03:33:06.261Z,0.00
2019-01-26T03:34:07.011Z,0.00
2019-01-26T03:35:06.199Z,0.00
2019-01-26T03:36:06.153Z,0.00
2019-01-26T03:37:06.159Z,0.00
2019-01-26T03:38:06.078Z,0.00
2019-01-26T03:39:06.038Z,0.00
2019-01-26T03:40:06.005Z,0.00
2019-01-26T03:41:05.963Z,0.00
2019-01-26T03:42:07.008Z,0.00
2019-01-26T03:43:05.949Z,0.00
2019-01-26T03:44:05.855Z,0.00
2019-01-26T03:45:05.858Z,0.00
2019-01-26T03:46:05.843Z,0.00
2019-01-26T03:47:05.791Z,0.00
2019-01-26T03:48:05.712Z,0.00
2019-01-26T03:49:05.667Z,0.00
2019-01-26T03:50:05.683Z,0.00
2019-01-26T03:51:05.594Z,0.00
2019-01-26T03:52:05.554Z,0.00
2019-01-26T03:53:05.518Z,0.00
2019-01-26T03:54:05.605Z,0.00
2019-01-26T03:55:05.449Z,0.00
2019-01-26T03:56:05.406Z,0.00
2019-01-26T03:57:05.424Z,0.00
2019-01-26T03:58:05.336Z,0.00
2019-01-26T03:59:05.343Z,0.00
2019-01-26T04:00:05.263Z,0.00
2019-01-26T04:01:05.351Z,0.00
2019-01-26T04:02:05.193Z,0.00
2019-01-26T04:03:05.166Z,0.00
2019-01-26T04:04:05.112Z,0.00
2019-01-26T04:05:05.123Z,0.00
2019-01-26T04:06:05.046Z,0.00
2019-01-26T04:07:05.054Z,0.00
2019-01-26T04:08:04.999Z,0.00
2019-01-26T04:09:05.512Z,0.00
2019-01-26T04:10:04.903Z,0.00
2019-01-26T04:11:04.856Z,0.00
2019-01-26T04:12:04.865Z,0.00
2019-01-26T04:13:05.167Z,0.00
2019-01-26T04:14:04.758Z,0.00
2019-01-26T04:15:04.714Z,0.00
2019-01-26T04:16:04.679Z,0.00
2019-01-26T04:17:04.667Z,0.00
2019-01-26T04:18:04.660Z,0.00
2019-01-26T04:19:04.564Z,0.00
2019-01-26T04:20:04.539Z,0.00
2019-01-26T04:21:04.494Z,0.00
2019-01-26T04:22:04.462Z,0.00
2019-01-26T04:23:04.468Z,0.00
2019-01-26T04:24:04.429Z,0.00
2019-01-26T04:25:04.345Z,0.00
2019-01-26T04:26:04.313Z,0.00
2019-01-26T04:27:04.271Z,0.00
2019-01-26T04:28:04.316Z,0.00
2019-01-26T04:29:04.242Z,0.00
2019-01-26T04:30:04.209Z,0.00
2019-01-26T04:31:04.127Z,0.00
2019-01-26T04:32:04.607Z,0.00
2019-01-26T04:33:12.042Z,0.00
2019-01-26T04:34:04.015Z,0.00
2019-01-26T04:35:04.038Z,0.00
2019-01-26T04:36:03.948Z,0.00
2019-01-26T04:37:03.911Z,0.00
2019-01-26T04:38:03.868Z,0.00
2019-01-26T04:39:03.836Z,0.00
2019-01-26T04:40:03.845Z,0.00
2019-01-26T04:41:03.759Z,0.00
2019-01-26T04:42:03.731Z,0.00
2019-01-26T04:43:03.688Z,0.00
2019-01-26T04:44:03.650Z,0.00
2019-01-26T04:45:03.666Z,0.00
2019-01-26T04:46:03.599Z,0.00
2019-01-26T04:47:03.542Z,0.00
2019-01-26T04:48:03.500Z,0.00
2019-01-26T04:49:03.473Z,0.00
2019-01-26T04:50:03.479Z,0.00
2019-01-26T04:51:03.442Z,0.00
2019-01-26T04:52:03.354Z,0.00
2019-01-26T04:53:03.318Z,0.00
2019-01-26T04:54:03.282Z,0.00
2019-01-26T04:55:03.301Z,0.00
2019-01-26T04:56:03.257Z,0.00
2019-01-26T04:57:03.176Z,0.00
2019-01-26T04:58:03.190Z,0.00
2019-01-26T04:59:03.098Z,0.00
2019-01-26T05:00:03.069Z,0.00
2019-01-26T05:01:03.030Z,0.00
2019-01-26T05:02:03.053Z,0.00
2019-01-26T05:03:02.967Z,0.00
2019-01-26T05:04:02.918Z,0.00
2019-01-26T05:05:02.879Z,0.00
2019-01-26T05:06:02.853Z,0.00
2019-01-26T05:07:02.852Z,0.00
2019-01-26T05:08:02.775Z,0.00
2019-01-26T05:09:02.735Z,0.00
2019-01-26T05:10:02.704Z,0.00
2019-01-26T05:11:02.714Z,0.00
2019-01-26T05:12:02.627Z,0.00
2019-01-26T05:13:02.591Z,0.00
2019-01-26T05:14:02.622Z,0.00
2019-01-26T05:15:02.543Z,0.00
2019-01-26T05:16:02.486Z,0.00
2019-01-26T05:17:02.447Z,0.00
2019-01-26T05:18:02.408Z,0.00
2019-01-26T05:19:02.429Z,0.00
2019-01-26T05:20:02.336Z,0.00
2019-01-26T05:21:02.340Z,0.00
2019-01-26T05:22:02.271Z,0.00
2019-01-26T05:23:02.234Z,0.00
2019-01-26T05:24:02.240Z,0.00
2019-01-26T05:25:02.155Z,0.00
2019-01-26T05:26:02.163Z,0.00
2019-01-26T05:27:02.083Z,0.00
2019-01-26T05:28:02.051Z,0.00
2019-01-26T05:29:02.017Z,0.00
2019-01-26T05:30:01.978Z,0.00
2019-01-26T05:31:02.045Z,0.00
2019-01-26T05:32:01.907Z,0.00
2019-01-26T05:33:01.864Z,0.00
2019-01-26T05:34:01.859Z,0.00
2019-01-26T05:35:01.806Z,0.00
2019-01-26T05:36:01.803Z,0.00
2019-01-26T05:37:01.782Z,0.00
2019-01-26T05:38:01.706Z,0.00
2019-01-26T05:39:01.660Z,0.00
2019-01-26T05:40:01.619Z,0.00
2019-01-26T05:41:01.578Z,0.00
2019-01-26T05:42:01.584Z,0.00
2019-01-26T05:43:01.503Z,0.00
2019-01-26T05:44:01.470Z,0.00
2019-01-26T05:45:01.445Z,0.00
2019-01-26T05:46:01.407Z,0.00
2019-01-26T05:47:01.410Z,0.00
2019-01-26T05:48:01.328Z,0.00
2019-01-26T05:49:01.337Z,0.00
2019-01-26T05:50:01.254Z,0.00
2019-01-26T05:51:01.212Z,0.00
2019-01-26T05:52:01.195Z,0.00
2019-01-26T05:53:01.145Z,0.00
2019-01-26T05:54:01.154Z,0.00
2019-01-26T05:55:01.070Z,0.00
2019-01-26T05:56:01.037Z,0.00
2019-01-26T05:57:01.073Z,0.00
2019-01-26T05:58:00.974Z,0.00
2019-01-26T05:59:00.991Z,0.00
2019-01-26T06:00:00.890Z,0.00
2019-01-26T06:01:00.866Z,0.00
2019-01-26T06:02:00.842Z,0.00
2019-01-26T06:03:00.799Z,0.00
2019-01-26T06:04:01.225Z,0.00
2019-01-26T06:05:00.717Z,0.00
2019-01-26T06:06:00.719Z,0.00
2019-01-26T06:07:00.637Z,0.00
2019-01-26T06:08:00.599Z,0.00
2019-01-26T06:09:00.564Z,0.00
2019-01-26T06:10:00.589Z,0.00
2019-01-26T06:11:00.539Z,0.00
2019-01-26T06:12:00.456Z,0.00
2019-01-26T06:13:00.423Z,0.00
2019-01-26T06:14:00.385Z,0.00
2019-01-26T06:15:00.348Z,0.00
2019-01-26T06:16:00.361Z,0.00
2019-01-26T06:17:00.278Z,0.00
2019-01-26T06:18:00.243Z,0.00
2019-01-26T06:19:00.216Z,0.00
2019-01-26T06:20:00.187Z,0.00
2019-01-26T06:21:00.183Z,0.00
2019-01-26T06:22:00.112Z,0.00
2019-01-26T06:23:00.063Z,0.00
2019-01-26T06:24:00.046Z,0.00
2019-01-26T06:25:00.001Z,0.00
2019-01-26T06:25:59.999Z,0.00
2019-01-26T06:26:59.915Z,0.00
2019-01-26T06:27:59.938Z,0.00
2019-01-26T06:28:59.895Z,4.00
2019-01-26T06:29:59.812Z,4.00
2019-01-26T06:31:00.646Z,4.00
2019-01-26T06:32:00.550Z,4.00
2019-01-26T06:32:59.719Z,4.00
2019-01-26T06:33:59.677Z,4.00
2019-01-26T06:34:59.649Z,4.00
2019-01-26T06:35:59.594Z,4.00
2019-01-26T06:36:59.602Z,8.00
2019-01-26T06:37:59.523Z,8.00
2019-01-26T06:38:59.484Z,8.00
2019-01-26T06:39:59.509Z,8.00
2019-01-26T06:40:59.420Z,8.00
2019-01-26T06:41:59.385Z,8.00
2019-01-26T06:42:59.345Z,12.00
2019-01-26T06:43:59.308Z,12.00
2019-01-26T06:44:59.314Z,16.00
2019-01-26T06:45:59.238Z,16.00
2019-01-26T06:46:59.252Z,20.00
2019-01-26T06:48:02.194Z,20.00
2019-01-26T06:48:59.135Z,24.00
2019-01-26T06:49:59.097Z,28.00
2019-01-26T06:50:59.058Z,32.00
2019-01-26T06:51:59.082Z,32.00
2019-01-26T06:52:58.984Z,32.00
2019-01-26T06:53:58.959Z,40.00
2019-01-26T06:54:58.914Z,40.00
2019-01-26T06:55:58.893Z,44.00
2019-01-26T06:56:58.930Z,48.00
2019-01-26T06:57:58.806Z,52.00
2019-01-26T06:58:58.769Z,56.00
2019-01-26T06:59:58.776Z,60.00
2019-01-26T07:00:58.700Z,68.00
2019-01-26T07:01:58.668Z,72.00
2019-01-26T07:02:58.676Z,80.00
2019-01-26T07:03:58.602Z,84.00
2019-01-26T07:04:58.557Z,88.00
2019-01-26T07:05:58.536Z,100.00
2019-01-26T07:06:58.493Z,108.00
2019-01-26T07:07:58.518Z,108.00
2019-01-26T07:08:58.417Z,116.00
2019-01-26T07:09:58.384Z,124.00
2019-01-26T07:10:58.346Z,132.00
2019-01-26T07:11:58.319Z,144.00
2019-01-26T07:12:58.323Z,156.00
2019-01-26T07:13:58.289Z,180.00
2019-01-26T07:14:58.204Z,208.00
2019-01-26T07:15:58.171Z,208.00
2019-01-26T07:16:58.132Z,216.00
2019-01-26T07:17:58.097Z,228.00
2019-01-26T07:18:58.108Z,244.00
2019-01-26T07:19:58.024Z,256.00
2019-01-26T07:20:57.990Z,260.00
2019-01-26T07:21:58.006Z,276.00
2019-01-26T07:22:57.914Z,292.00
2019-01-26T07:23:57.886Z,332.00
2019-01-26T07:24:57.879Z,344.00
2019-01-26T07:25:57.858Z,364.00
2019-01-26T07:26:57.776Z,372.00
2019-01-26T07:27:57.742Z,404.00
2019-01-26T07:28:57.707Z,420.00
2019-01-26T07:29:57.688Z,432.00
2019-01-26T07:30:57.689Z,400.00
2019-01-26T07:31:57.601Z,388.00
2019-01-26T07:32:57.563Z,408.00
2019-01-26T07:33:57.527Z,360.00
2019-01-26T07:34:57.497Z,400.00
2019-01-26T07:35:57.504Z,424.00
2019-01-26T07:36:57.431Z,428.00
2019-01-26T07:37:57.439Z,468.00
2019-01-26T07:38:57.412Z,496.00
2019-01-26T07:39:57.317Z,500.00
2019-01-26T07:40:57.320Z,524.00
2019-01-26T07:41:57.284Z,512.00
2019-01-26T07:42:58.060Z,528.00
2019-01-26T07:43:57.189Z,572.00
2019-01-26T07:44:57.140Z,528.00
2019-01-26T07:45:57.107Z,564.00
2019-01-26T07:46:57.114Z,568.00
2019-01-26T07:47:57.035Z,568.00
2019-01-26T07:48:57.010Z,596.00
2019-01-26T07:49:56.963Z,608.00
2019-01-26T07:50:56.932Z,644.00
2019-01-26T07:51:56.942Z,684.00
2019-01-26T07:52:56.868Z,632.00
2019-01-26T07:53:56.825Z,584.00
2019-01-26T07:54:56.839Z,604.00
2019-01-26T07:55:56.759Z,644.00
2019-01-26T07:56:56.765Z,636.00
2019-01-26T07:57:56.680Z,656.00
2019-01-26T07:58:56.714Z,660.00
2019-01-26T07:59:56.609Z,704.00
2019-01-26T08:00:56.594Z,784.00
2019-01-26T08:01:56.539Z,876.00
2019-01-26T08:02:56.555Z,980.00
2019-01-26T08:03:56.471Z,1028.00
2019-01-26T08:04:56.474Z,1144.00
2019-01-26T08:05:56.425Z,1240.00
2019-01-26T08:06:56.368Z,1212.00
2019-01-26T08:07:56.373Z,1192.00
2019-01-26T08:08:56.297Z,1124.00
2019-01-26T08:09:56.316Z,1108.00
2019-01-26T08:10:56.224Z,1012.00
2019-01-26T08:11:56.195Z,904.00
2019-01-26T08:12:56.163Z,932.00
2019-01-26T08:13:56.123Z,1012.00
2019-01-26T08:14:56.147Z,1096.00
2019-01-26T08:15:56.124Z,1196.00
2019-01-26T08:16:56.031Z,1332.00
2019-01-26T08:17:55.983Z,1436.00
2019-01-26T08:18:55.945Z,1340.00
2019-01-26T08:19:55.973Z,1392.00
2019-01-26T08:20:55.877Z,1448.00
2019-01-26T08:21:55.861Z,1348.00
2019-01-26T08:22:55.805Z,1256.00
2019-01-26T08:23:55.773Z,1196.00
2019-01-26T08:24:55.781Z,1140.00
2019-01-26T08:25:55.758Z,1140.00
2019-01-26T08:26:56.562Z,1252.00
2019-01-26T08:27:55.670Z,1260.00
2019-01-26T08:28:55.598Z,1132.00
2019-01-26T08:29:55.576Z,1060.00
2019-01-26T08:30:55.686Z,1072.00
2019-01-26T08:31:55.495Z,1112.00
2019-01-26T08:32:55.462Z,1148.00
2019-01-26T08:33:55.422Z,1364.00
2019-01-26T08:34:55.396Z,1504.00
2019-01-26T08:35:55.413Z,1712.00
2019-01-26T08:36:55.318Z,1920.00
2019-01-26T08:37:55.288Z,1824.00
2019-01-26T08:38:55.254Z,1684.00
2019-01-26T08:39:55.230Z,1576.00
2019-01-26T08:40:55.220Z,1504.00
2019-01-26T08:41:55.195Z,1528.00
2019-01-26T08:42:55.116Z,1536.00
2019-01-26T08:43:55.079Z,1612.00
2019-01-26T08:44:55.047Z,1592.00
2019-01-26T08:45:55.066Z,1680.00
2019-01-26T08:46:55.036Z,1680.00
2019-01-26T08:47:54.946Z,1684.00
2019-01-26T08:48:54.907Z,1496.00
2019-01-26T08:49:54.878Z,1564.00
2019-01-26T08:50:54.902Z,1708.00
2019-01-26T08:51:54.855Z,1740.00
2019-01-26T08:52:54.774Z,1564.00
2019-01-26T08:53:54.736Z,1340.00
2019-01-26T08:54:54.701Z,1124.00
2019-01-26T08:55:54.750Z,1080.00
2019-01-26T08:56:54.637Z,1048.00
2019-01-26T08:57:54.642Z,1016.00
2019-01-26T08:58:54.568Z,1108.00
2019-01-26T08:59:54.530Z,1184.00
2019-01-26T09:00:54.544Z,1272.00
2019-01-26T09:01:54.459Z,1364.00
2019-01-26T09:02:56.112Z,1288.00
2019-01-26T09:03:54.395Z,1392.00
2019-01-26T09:04:54.358Z,1408.00
2019-01-26T09:05:54.366Z,1444.00
2019-01-26T09:06:54.291Z,1572.00
2019-01-26T09:07:54.254Z,1708.00
2019-01-26T09:08:54.259Z,2084.00
2019-01-26T09:09:54.277Z,2052.00
2019-01-26T09:10:54.153Z,2016.00
2019-01-26T09:11:54.126Z,1724.00
2019-01-26T09:12:54.084Z,1732.00
2019-01-26T09:13:54.214Z,1796.00
2019-01-26T09:14:54.015Z,2008.00
2019-01-26T09:15:53.983Z,1964.00
2019-01-26T09:16:53.962Z,1976.00
2019-01-26T09:17:53.919Z,1952.00
2019-01-26T09:18:53.925Z,1844.00
2019-01-26T09:19:53.889Z,1844.00
2019-01-26T09:20:53.814Z,1564.00
2019-01-26T09:21:53.781Z,1436.00
2019-01-26T09:22:53.751Z,1484.00
2019-01-26T09:23:53.754Z,1652.00
2019-01-26T09:24:53.675Z,1924.00
2019-01-26T09:25:53.683Z,1948.00
2019-01-26T09:26:53.612Z,1760.00
2019-01-26T09:27:53.577Z,1928.00
2019-01-26T09:28:53.577Z,1720.00
2019-01-26T09:29:53.504Z,1692.00
2019-01-26T09:30:53.513Z,1636.00
2019-01-26T09:31:53.437Z,1800.00
2019-01-26T09:32:53.413Z,1804.00
2019-01-26T09:33:53.372Z,1748.00
2019-01-26T09:34:53.383Z,1816.00
2019-01-26T09:35:53.347Z,1688.00
2019-01-26T09:36:53.274Z,1816.00
2019-01-26T09:37:53.254Z,2028.00
2019-01-26T09:38:53.207Z,1892.00
2019-01-26T09:39:53.169Z,1916.00
2019-01-26T09:40:53.183Z,2016.00
2019-01-26T09:41:53.104Z,1884.00
2019-01-26T09:42:53.090Z,2024.00
2019-01-26T09:43:53.037Z,2032.00
2019-01-26T09:44:52.997Z,2320.00
2019-01-26T09:45:53.218Z,2380.00
2019-01-26T09:46:52.981Z,2508.00
2019-01-26T09:47:52.895Z,2612.00
2019-01-26T09:48:52.859Z,2624.00
2019-01-26T09:49:52.828Z,2684.00
2019-01-26T09:50:52.796Z,2644.00
2019-01-26T09:51:52.799Z,2452.00
2019-01-26T09:52:52.773Z,2420.00
2019-01-26T09:53:52.690Z,2576.00
2019-01-26T09:54:52.658Z,2756.00
2019-01-26T09:55:52.622Z,2704.00
2019-01-26T09:56:52.622Z,2628.00
2019-01-26T09:57:52.600Z,2592.00
2019-01-26T09:58:52.525Z,2384.00
2019-01-26T09:59:52.485Z,2308.00
2019-01-26T10:00:52.450Z,2468.00
2019-01-26T10:01:52.416Z,2432.00
2019-01-26T10:02:53.168Z,2516.00
2019-01-26T10:03:52.347Z,2644.00
2019-01-26T10:04:52.315Z,2628.00
2019-01-26T10:05:52.379Z,2656.00
2019-01-26T10:06:52.245Z,2652.00
2019-01-26T10:07:52.252Z,2624.00
2019-01-26T10:08:52.248Z,2712.00
2019-01-26T10:09:52.142Z,2988.00
2019-01-26T10:10:52.114Z,3184.00
2019-01-26T10:11:52.085Z,3040.00
2019-01-26T10:12:52.042Z,3108.00
2019-01-26T10:13:54.569Z,3116.00
2019-01-26T10:14:51.981Z,3204.00
2019-01-26T10:15:51.988Z,3180.00
2019-01-26T10:16:51.913Z,3048.00
2019-01-26T10:17:51.897Z,3308.00
2019-01-26T10:18:53.785Z,3188.00
2019-01-26T10:19:51.807Z,3512.00
2019-01-26T10:20:51.818Z,3552.00
2019-01-26T10:21:51.780Z,3616.00
2019-01-26T10:22:51.737Z,3692.00
2019-01-26T10:23:51.686Z,3836.00
2019-01-26T10:24:51.643Z,3860.00
2019-01-26T10:25:51.661Z,3880.00
2019-01-26T10:26:51.571Z,3836.00
2019-01-26T10:27:51.531Z,3772.00
2019-01-26T10:28:51.512Z,3788.00
2019-01-26T10:29:51.467Z,3988.00
2019-01-26T10:30:51.502Z,4264.00
2019-01-26T10:31:51.400Z,4384.00
2019-01-26T10:32:51.364Z,4596.00
2019-01-26T10:34:01.215Z,4528.00
2019-01-26T10:34:51.329Z,4412.00
2019-01-26T10:35:51.377Z,4380.00
2019-01-26T10:36:51.270Z,4460.00
2019-01-26T10:37:51.232Z,4388.00
2019-01-26T10:38:51.205Z,4464.00
2019-01-26T10:39:51.168Z,4564.00
2019-01-26T10:40:51.205Z,4508.00
2019-01-26T10:41:51.136Z,4536.00
2019-01-26T10:42:51.030Z,4532.00
2019-01-26T10:43:50.998Z,4620.00
2019-01-26T10:44:50.962Z,4636.00
2019-01-26T10:45:50.940Z,4496.00
2019-01-26T10:46:50.950Z,4132.00
2019-01-26T10:47:50.864Z,3972.00
2019-01-26T10:48:50.827Z,4008.00
2019-01-26T10:49:50.797Z,3964.00
2019-01-26T10:50:50.763Z,4040.00
2019-01-26T10:51:50.789Z,4204.00
2019-01-26T10:52:50.701Z,4344.00
2019-01-26T10:53:50.661Z,4508.00
2019-01-26T10:54:50.626Z,4732.00
2019-01-26T10:55:50.610Z,4656.00
2019-01-26T10:56:57.595Z,4492.00
2019-01-26T10:57:50.527Z,4528.00
2019-01-26T10:58:50.501Z,4684.00
2019-01-26T10:59:50.516Z,4668.00
2019-01-26T11:00:50.434Z,4528.00
2019-01-26T11:01:50.440Z,4512.00
2019-01-26T11:02:50.396Z,4388.00
2019-01-26T11:03:50.331Z,4264.00
2019-01-26T11:04:50.339Z,4056.00
2019-01-26T11:05:50.260Z,4028.00
2019-01-26T11:06:50.260Z,3980.00
2019-01-26T11:07:50.259Z,3900.00
2019-01-26T11:08:50.223Z,4136.00
2019-01-26T11:09:51.597Z,4188.00
2019-01-26T11:10:50.095Z,4232.00
2019-01-26T11:11:50.060Z,4256.00
2019-01-26T11:12:50.411Z,4316.00
2019-01-26T11:13:50.049Z,4296.00
2019-01-26T11:14:49.968Z,4412.00
2019-01-26T11:15:49.935Z,4384.00
2019-01-26T11:16:49.920Z,4388.00
2019-01-26T11:17:49.859Z,4212.00
2019-01-26T11:18:49.879Z,4052.00
2019-01-26T11:19:49.794Z,3788.00
2019-01-26T11:20:49.765Z,3912.00
2019-01-26T11:21:49.770Z,3620.00
2019-01-26T11:22:49.691Z,3644.00
2019-01-26T11:23:49.666Z,3608.00
2019-01-26T11:24:49.630Z,3500.00
2019-01-26T11:25:49.644Z,3584.00
2019-01-26T11:26:49.682Z,3460.00
2019-01-26T11:27:49.529Z,3496.00
2019-01-26T11:28:49.510Z,3796.00
2019-01-26T11:29:49.486Z,3688.00
2019-01-26T11:30:49.468Z,3732.00
2019-01-26T11:31:49.477Z,3772.00
2019-01-26T11:32:49.442Z,3912.00
2019-01-26T11:33:49.350Z,3892.00
2019-01-26T11:34:49.296Z,4052.00
2019-01-26T11:35:49.262Z,3948.00
2019-01-26T11:36:49.284Z,3944.00
2019-01-26T11:37:49.207Z,3624.00
2019-01-26T11:38:49.200Z,3660.00
2019-01-26T11:39:49.134Z,3644.00
2019-01-26T11:40:49.100Z,3504.00
2019-01-26T11:41:49.113Z,3544.00
2019-01-26T11:42:49.050Z,3568.00
2019-01-26T11:43:49.016Z,3704.00
2019-01-26T11:44:48.973Z,3648.00
2019-01-26T11:45:48.931Z,3740.00
2019-01-26T11:46:48.997Z,3692.00
2019-01-26T11:47:48.871Z,3864.00
2019-01-26T11:48:48.859Z,3748.00
2019-01-26T11:49:48.800Z,3804.00
2019-01-26T11:50:48.766Z,3920.00
2019-01-26T11:51:48.779Z,3704.00
2019-01-26T11:52:48.698Z,3696.00
2019-01-26T11:53:48.670Z,3736.00
2019-01-26T11:54:48.631Z,3820.00
2019-01-26T11:55:48.647Z,3852.00
2019-01-26T11:56:48.562Z,3940.00
2019-01-26T11:57:48.540Z,3936.00
2019-01-26T11:58:48.540Z,3956.00
2019-01-26T11:59:48.459Z,4024.00
2019-01-26T12:00:48.441Z,4236.00
2019-01-26T12:01:48.403Z,4472.00
2019-01-26T12:02:48.477Z,4528.00
2019-01-26T12:03:48.327Z,4944.00
2019-01-26T12:04:48.312Z,5332.00
2019-01-26T12:05:48.313Z,5576.00
2019-01-26T12:06:48.245Z,5628.00
2019-01-26T12:07:48.210Z,5580.00
2019-01-26T12:08:48.214Z,5364.00
2019-01-26T12:09:48.147Z,4928.00
2019-01-26T12:10:48.103Z,5084.00
2019-01-26T12:11:48.132Z,5012.00
2019-01-26T12:12:48.040Z,5084.00
2019-01-26T12:13:48.112Z,5292.00
2019-01-26T12:14:48.605Z,5536.00
2019-01-26T12:15:47.952Z,5676.00
2019-01-26T12:16:48.737Z,5760.00
2019-01-26T12:17:47.875Z,5764.00
2019-01-26T12:18:47.880Z,5656.00
2019-01-26T12:19:47.804Z,5472.00
2019-01-26T12:20:47.778Z,5464.00
2019-01-26T12:21:47.777Z,5328.00
2019-01-26T12:22:47.702Z,5152.00
2019-01-26T12:23:47.691Z,5012.00
2019-01-26T12:24:47.644Z,4960.00
2019-01-26T12:25:47.646Z,4764.00
2019-01-26T12:26:47.667Z,4728.00
2019-01-26T12:27:47.549Z,5020.00
2019-01-26T12:28:47.542Z,4884.00
2019-01-26T12:29:47.495Z,4948.00
2019-01-26T12:30:47.444Z,5060.00
2019-01-26T12:31:49.112Z,5108.00
2019-01-26T12:32:47.445Z,5200.00
2019-01-26T12:33:47.494Z,5220.00
2019-01-26T12:34:47.345Z,5420.00
2019-01-26T12:35:47.354Z,5580.00
2019-01-26T12:36:47.277Z,5604.00
2019-01-26T12:37:47.278Z,5532.00
2019-01-26T12:38:47.184Z,5412.00
2019-01-26T12:39:50.108Z,5184.00
2019-01-26T12:40:47.120Z,4776.00
2019-01-26T12:41:47.087Z,4604.00
2019-01-26T12:42:48.607Z,4380.00
2019-01-26T12:43:47.021Z,4212.00
2019-01-26T12:44:46.993Z,4228.00